createdAt,value
2022-12-27T00:00:55.117Z,2.50
2022-12-27T00:10:08.047Z,3.30
2022-12-27T00:29:10.499Z,3.25
2022-12-27T00:39:56.429Z,3.28
2022-12-27T00:48:30.140Z,5.03
2022-12-27T00:54:24.292Z,5.40
2022-12-27T00:57:25.120Z,3.90
2022-12-27T01:01:28.876Z,2.90
2022-12-27T01:04:21.016Z,2.92
2022-12-27T01:11:05.025Z,2.13
2022-12-27T01:16:11.378Z,4.65
2022-12-27T01:22:27.338Z,3.30
2022-12-27T01:25:58.254Z,6.97
2022-12-27T01:28:42.144Z,6.55
2022-12-27T01:44:00.377Z,1.90
2022-12-27T01:46:50.335Z,1.48
2022-12-27T01:50:33.961Z,1.80
2022-12-27T01:53:23.160Z,1.00
2022-12-27T02:00:03.624Z,1.50
2022-12-27T02:03:13.329Z,1.23
2022-12-27T02:09:24.794Z,1.45
2022-12-27T02:15:52.721Z,1.20
2022-12-27T02:18:57.135Z,1.45
2022-12-27T02:29:09.272Z,0.98
2022-12-27T02:32:54.884Z,2.65
2022-12-27T02:35:47.452Z,1.25
2022-12-27T02:46:39.033Z,0.82
2022-12-27T03:10:35.870Z,1.38
2022-12-27T03:14:07.071Z,1.92
2022-12-27T03:20:20.710Z,1.20
2022-12-27T04:09:45.505Z,0.45
2022-12-27T04:21:32.371Z,0.43
2022-12-27T05:31:24.568Z,1.60
2022-12-27T05:50:50.622Z,0.60
2022-12-27T05:56:59.587Z,0.73
2022-12-27T06:00:20.247Z,2.15
2022-12-27T06:03:08.556Z,0.57
2022-12-27T06:05:35.299Z,1.52
2022-12-27T06:08:27.231Z,2.50
2022-12-27T06:18:14.970Z,1.45
2022-12-27T06:32:07.033Z,1.90
2022-12-27T06:40:08.457Z,2.35
2022-12-27T06:52:41.273Z,3.15
2022-12-27T06:56:12.103Z,7.20
2022-12-27T07:00:03.662Z,3.10
2022-12-27T07:12:59.697Z,12.15
2022-12-27T07:33:52.825Z,3.20
2022-12-27T07:57:32.907Z,11.98
2022-12-27T09:03:58.190Z,2.90
2022-12-27T09:18:18.411Z,2.38
2022-12-27T09:45:06.201Z,4.85
2022-12-27T10:10:52.038Z,1.98
2022-12-27T10:13:49.858Z,1.20
2022-12-27T10:16:40.159Z,2.22
2022-12-27T10:19:34.771Z,1.70
2022-12-27T11:37:25.880Z,1.40
2022-12-27T11:59:50.284Z,1.10
2022-12-27T12:13:42.932Z,3.08
2022-12-27T12:20:24.361Z,3.92
2022-12-27T12:58:27.406Z,6.40
2022-12-27T13:05:09.705Z,3.88
2022-12-27T13:08:14.679Z,2.50
2022-12-27T13:11:35.837Z,1.52
2022-12-27T13:14:58.467Z,1.83
2022-12-27T13:18:07.300Z,1.27
2022-12-27T13:21:11.123Z,4.55
2022-12-27T13:24:11.319Z,1.35
2022-12-27T13:27:09.079Z,3.75
2022-12-27T13:30:06.367Z,3.53
2022-12-27T13:32:55.528Z,1.67
2022-12-27T13:35:39.510Z,3.00
2022-12-27T13:38:46.294Z,1.10
2022-12-27T13:41:54.697Z,2.53
2022-12-27T13:45:03.539Z,1.83
2022-12-27T13:48:04.182Z,0.50
2022-12-27T13:51:26.410Z,2.38
2022-12-27T13:58:06.655Z,1.40
2022-12-27T14:01:05.346Z,2.35
2022-12-27T14:04:38.989Z,0.77
2022-12-27T14:07:41.942Z,1.48
2022-12-27T14:10:42.025Z,0.50
2022-12-27T14:13:45.060Z,0.82
2022-12-27T14:16:36.045Z,0.97
2022-12-27T14:20:00.668Z,1.60
2022-12-27T14:23:15.246Z,1.23
2022-12-27T14:26:24.342Z,0.57
2022-12-27T14:33:11.373Z,2.45
2022-12-27T14:37:45.523Z,1.17
2022-12-27T14:39:59.768Z,0.85
2022-12-27T14:43:12.243Z,3.08
2022-12-27T14:46:27.303Z,2.35
2022-12-27T14:49:46.199Z,1.00
2022-12-27T14:53:04.242Z,1.02
2022-12-27T14:59:26.602Z,1.10
2022-12-27T15:02:29.991Z,1.35
2022-12-27T15:05:31.088Z,1.48
2022-12-27T15:08:41.420Z,2.65
2022-12-27T15:11:48.182Z,2.42
2022-12-27T15:14:43.831Z,1.60
2022-12-27T15:21:41.716Z,1.63
2022-12-27T15:24:58.911Z,4.00
2022-12-27T15:31:17.084Z,3.75
2022-12-27T15:34:15.151Z,1.90
2022-12-27T15:37:01.650Z,5.20
2022-12-27T15:39:48.968Z,5.10
2022-12-27T15:42:48.124Z,8.73
2022-12-27T15:45:57.194Z,3.00
2022-12-27T15:49:23.542Z,3.05
2022-12-27T15:52:38.565Z,4.10
2022-12-27T16:09:52.440Z,18.17
2022-12-27T16:12:38.303Z,16.90
2022-12-27T16:15:43.577Z,11.35
2022-12-27T16:18:22.576Z,13.07
2022-12-27T16:21:12.661Z,10.20
2022-12-27T16:23:50.794Z,7.32
2022-12-27T16:26:36.409Z,8.15
2022-12-27T16:29:15.069Z,6.32
2022-12-27T16:31:47.691Z,7.65
2022-12-27T16:41:40.189Z,8.00
2022-12-27T16:48:35.319Z,25.70
2022-12-27T16:55:07.563Z,14.63
2022-12-27T16:58:40.935Z,8.65
2022-12-27T17:01:28.325Z,7.00
2022-12-27T17:04:39.737Z,6.45
2022-12-27T17:33:59.772Z,11.93
2022-12-27T17:47:50.354Z,12.32
2022-12-27T17:50:25.566Z,20.30
2022-12-27T17:53:32.518Z,21.45
2022-12-27T17:56:42.351Z,8.05
2022-12-27T17:59:13.343Z,6.75
2022-12-27T18:01:48.711Z,16.00
2022-12-27T18:04:24.494Z,4.90
2022-12-27T18:07:02.874Z,3.58
2022-12-27T18:09:40.894Z,3.33
2022-12-27T18:12:14.687Z,2.45
2022-12-27T18:14:41.990Z,3.25
2022-12-27T18:17:28.937Z,5.03
2022-12-27T18:19:56.074Z,3.63
2022-12-27T18:22:22.647Z,4.43
2022-12-27T18:24:51.855Z,7.20
2022-12-27T18:27:24.607Z,5.35
2022-12-27T18:29:52.059Z,6.43
2022-12-27T18:32:19.485Z,8.82
2022-12-27T18:35:12.875Z,4.18
2022-12-27T18:37:40.568Z,4.53
2022-12-27T18:40:17.493Z,7.35
2022-12-27T18:42:49.057Z,7.68
2022-12-27T18:45:22.313Z,10.45
2022-12-27T18:50:22.683Z,5.45
2022-12-27T18:53:01.683Z,11.27
2022-12-27T18:55:28.936Z,7.55
2022-12-27T18:58:06.640Z,6.75
2022-12-27T19:00:47.851Z,6.78
2022-12-27T19:03:33.826Z,9.68
2022-12-27T19:06:16.708Z,7.70
2022-12-27T19:08:53.228Z,10.65
2022-12-27T19:11:33.081Z,13.05
2022-12-27T19:14:07.950Z,12.13
2022-12-27T19:26:55.443Z,9.32
2022-12-27T19:29:42.521Z,12.93
2022-12-27T19:33:01.678Z,12.85
2022-12-27T19:35:29.095Z,7.70
2022-12-27T19:37:57.333Z,7.93
2022-12-27T19:43:57.701Z,18.20
2022-12-27T19:51:14.694Z,8.45
2022-12-27T19:53:43.131Z,6.50
2022-12-27T19:56:27.897Z,13.77
2022-12-27T19:58:54.868Z,26.20
2022-12-27T20:01:21.509Z,14.43
2022-12-27T20:03:48.037Z,11.93
2022-12-27T20:06:22.975Z,12.13
2022-12-27T20:08:53.191Z,21.23
2022-12-27T20:11:22.883Z,22.10
2022-12-27T20:13:50.320Z,29.65
2022-12-27T20:23:19.900Z,11.32
2022-12-27T20:26:33.038Z,5.13
2022-12-27T20:28:53.695Z,6.00
2022-12-27T20:31:27.712Z,3.28
2022-12-27T20:37:24.939Z,3.67
2022-12-27T20:42:42.400Z,5.75
2022-12-27T20:45:12.913Z,3.63
2022-12-27T20:47:40.491Z,4.57
2022-12-27T20:50:09.838Z,5.07
2022-12-27T20:52:47.128Z,5.47
2022-12-27T20:55:16.557Z,5.85
2022-12-27T20:57:43.308Z,3.78
2022-12-27T21:00:11.910Z,4.20
2022-12-27T21:02:39.930Z,4.45
2022-12-27T21:05:09.904Z,4.45
2022-12-27T21:09:06.746Z,4.45
2022-12-27T21:11:33.598Z,4.68
2022-12-27T21:14:01.694Z,3.22
2022-12-27T21:16:30.816Z,5.15
2022-12-27T21:18:57.959Z,4.47
2022-12-27T21:21:28.740Z,4.22
2022-12-27T21:26:41.055Z,3.70
2022-12-27T21:29:16.296Z,6.43
2022-12-27T21:31:45.995Z,8.10
2022-12-27T21:34:13.082Z,4.60
2022-12-27T21:36:39.625Z,20.55
2022-12-27T21:39:45.927Z,8.80
2022-12-27T21:45:38.813Z,4.22
2022-12-27T21:48:06.023Z,5.32
2022-12-27T21:50:37.520Z,3.97
2022-12-27T21:54:30.855Z,7.97
2022-12-27T21:56:57.416Z,5.05
2022-12-27T21:59:58.124Z,6.15
2022-12-27T22:02:38.510Z,2.88
2022-12-27T22:05:18.390Z,2.17
2022-12-27T22:07:44.980Z,4.72
2022-12-27T22:10:21.971Z,3.55
2022-12-27T22:12:55.207Z,3.95
2022-12-27T22:18:02.607Z,3.35
2022-12-27T22:20:30.627Z,4.10
2022-12-27T22:22:57.234Z,3.42
2022-12-27T22:35:27.772Z,2.97
2022-12-27T22:38:15.871Z,2.38
2022-12-27T22:56:23.502Z,1.80
2022-12-27T23:06:50.726Z,3.25
2022-12-27T23:09:44.812Z,3.10
2022-12-27T23:15:51.413Z,7.00
2022-12-27T23:18:21.121Z,3.85
2022-12-27T23:24:22.446Z,3.40
2022-12-27T23:27:26.098Z,3.60
2022-12-27T23:29:52.656Z,8.02
2022-12-27T23:32:19.272Z,6.45
2022-12-27T23:35:05.004Z,9.63
2022-12-27T23:37:31.658Z,7.20
